Terminal Aerodrome Forecast
Issued by NWS

Home | Current Version | Previous Version | Text Only | Print | Product List | Glossary On
Versions: 1 2 3 4 5 6 7 8 9 10 11 12 13 14 15 16 17 18 19 20
000
FTUS43 KOAX 280536
TAFSNY
TAF
KSNY 280536Z 2806/2906 31012KT P6SM SCT150
     FM281500 27012G22KT P6SM BKN100
     FM290200 31007KT 6SM -SN OVC050=

USA.gov is the U.S. government's official web portal to all federal, state and local government web resources and services.